sensor_id;sensor_type;location;lat;lon;timestamp;pressure;altitude;pressure_sealevel;temperature;humidity
35676;BME280;21790;42.668;23.298;2023-03-14T00:01:45;94896.56;;;10.93;36.08
35676;BME280;21790;42.668;23.298;2023-03-14T00:04:12;94894.53;;;10.75;35.94
35676;BME280;21790;42.668;23.298;2023-03-14T00:06:39;94891.75;;;10.66;35.96
35676;BME280;21790;42.668;23.298;2023-03-14T00:09:05;94892.69;;;10.63;36.32
35676;BME280;21790;42.668;23.298;2023-03-14T00:11:33;94889.59;;;10.52;36.71
35676;BME280;21790;42.668;23.298;2023-03-14T00:13:59;94887.44;;;10.65;36.07
35676;BME280;21790;42.668;23.298;2023-03-14T00:16:26;94870.69;;;10.59;36.40
35676;BME280;21790;42.668;23.298;2023-03-14T00:18:52;94871.56;;;10.96;35.45
35676;BME280;21790;42.668;23.298;2023-03-14T00:21:17;94873.69;;;10.83;35.75
35676;BME280;21790;42.668;23.298;2023-03-14T00:23:45;94879.25;;;10.43;36.02
35676;BME280;21790;42.668;23.298;2023-03-14T00:26:14;94862.91;;;10.76;35.76
35676;BME280;21790;42.668;23.298;2023-03-14T00:28:41;94859.97;;;10.70;36.11
35676;BME280;21790;42.668;23.298;2023-03-14T00:31:09;94850.59;;;10.59;35.97
35676;BME280;21790;42.668;23.298;2023-03-14T00:33:35;94853.00;;;10.38;36.31
35676;BME280;21790;42.668;23.298;2023-03-14T00:36:06;94858.41;;;10.51;35.89
35676;BME280;21790;42.668;23.298;2023-03-14T00:38:35;94848.69;;;10.37;36.67
35676;BME280;21790;42.668;23.298;2023-03-14T00:41:10;94850.28;;;10.57;36.67
35676;BME280;21790;42.668;23.298;2023-03-14T00:43:36;94838.94;;;10.15;37.56
35676;BME280;21790;42.668;23.298;2023-03-14T00:46:03;94838.38;;;10.20;37.54
35676;BME280;21790;42.668;23.298;2023-03-14T00:48:29;94845.59;;;10.26;37.43
35676;BME280;21790;42.668;23.298;2023-03-14T00:50:54;94842.16;;;10.13;37.54
35676;BME280;21790;42.668;23.298;2023-03-14T00:53:20;94836.75;;;10.09;37.41
35676;BME280;21790;42.668;23.298;2023-03-14T00:55:46;94848.66;;;10.19;37.53
35676;BME280;21790;42.668;23.298;2023-03-14T00:58:15;94842.81;;;10.17;37.72
35676;BME280;21790;42.668;23.298;2023-03-14T01:00:43;94839.28;;;10.17;38.01
35676;BME280;21790;42.668;23.298;2023-03-14T01:03:16;94833.88;;;10.13;37.88
35676;BME280;21790;42.668;23.298;2023-03-14T01:05:42;94826.88;;;9.90;38.58
35676;BME280;21790;42.668;23.298;2023-03-14T01:08:08;94834.47;;;10.08;38.01
35676;BME280;21790;42.668;23.298;2023-03-14T01:10:40;94829.84;;;10.05;38.33
35676;BME280;21790;42.668;23.298;2023-03-14T01:13:07;94830.84;;;9.80;38.77
35676;BME280;21790;42.668;23.298;2023-03-14T01:15:34;94823.44;;;10.08;38.16
35676;BME280;21790;42.668;23.298;2023-03-14T01:18:02;94821.72;;;10.01;38.19
35676;BME280;21790;42.668;23.298;2023-03-14T01:20:30;94810.81;;;9.98;38.43
35676;BME280;21790;42.668;23.298;2023-03-14T01:22:56;94804.22;;;9.95;38.05
35676;BME280;21790;42.668;23.298;2023-03-14T01:25:22;94810.34;;;9.99;37.85
35676;BME280;21790;42.668;23.298;2023-03-14T01:27:50;94817.25;;;9.95;37.70
35676;BME280;21790;42.668;23.298;2023-03-14T01:30:16;94809.72;;;9.95;37.45
35676;BME280;21790;42.668;23.298;2023-03-14T01:32:41;94809.81;;;9.83;38.22
35676;BME280;21790;42.668;23.298;2023-03-14T01:35:07;94796.69;;;9.96;37.75
35676;BME280;21790;42.668;23.298;2023-03-14T01:37:33;94795.41;;;9.79;37.88
35676;BME280;21790;42.668;23.298;2023-03-14T01:39:59;94795.44;;;9.88;37.78
35676;BME280;21790;42.668;23.298;2023-03-14T01:42:24;94793.91;;;9.87;38.12
35676;BME280;21790;42.668;23.298;2023-03-14T01:44:57;94797.88;;;9.86;38.21
35676;BME280;21790;42.668;23.298;2023-03-14T01:47:23;94796.69;;;9.87;38.11
35676;BME280;21790;42.668;23.298;2023-03-14T01:49:56;94794.38;;;9.94;38.46
35676;BME280;21790;42.668;23.298;2023-03-14T01:54:58;94786.50;;;9.75;38.65
35676;BME280;21790;42.668;23.298;2023-03-14T01:57:30;94788.81;;;9.76;38.26
35676;BME280;21790;42.668;23.298;2023-03-14T02:00:15;94780.31;;;10.01;37.67
35676;BME280;21790;42.668;23.298;2023-03-14T02:02:45;94782.97;;;9.74;38.28
35676;BME280;21790;42.668;23.298;2023-03-14T02:05:14;94781.94;;;9.81;37.84
35676;BME280;21790;42.668;23.298;2023-03-14T02:07:52;94787.72;;;9.74;37.89
35676;BME280;21790;42.668;23.298;2023-03-14T02:10:21;94786.56;;;9.93;37.46
35676;BME280;21790;42.668;23.298;2023-03-14T02:12:49;94777.91;;;9.73;37.56
35676;BME280;21790;42.668;23.298;2023-03-14T02:15:19;94775.28;;;9.69;36.93
35676;BME280;21790;42.668;23.298;2023-03-14T02:17:45;94783.75;;;9.75;37.27
35676;BME280;21790;42.668;23.298;2023-03-14T02:23:04;94767.63;;;9.73;37.74
35676;BME280;21790;42.668;23.298;2023-03-14T02:28:01;94781.75;;;9.75;38.13
35676;BME280;21790;42.668;23.298;2023-03-14T02:30:29;94770.19;;;9.58;38.71
35676;BME280;21790;42.668;23.298;2023-03-14T02:32:59;94768.66;;;9.66;38.47
35676;BME280;21790;42.668;23.298;2023-03-14T02:35:37;94775.47;;;9.75;37.75
35676;BME280;21790;42.668;23.298;2023-03-14T02:38:13;94778.69;;;9.82;37.75
35676;BME280;21790;42.668;23.298;2023-03-14T02:40:42;94782.47;;;9.66;38.34
35676;BME280;21790;42.668;23.298;2023-03-14T02:43:08;94778.16;;;9.65;38.08
35676;BME280;21790;42.668;23.298;2023-03-14T02:45:38;94780.91;;;9.65;38.27
35676;BME280;21790;42.668;23.298;2023-03-14T02:48:09;94782.03;;;9.68;37.70
35676;BME280;21790;42.668;23.298;2023-03-14T02:50:37;94787.75;;;9.83;36.86
35676;BME280;21790;42.668;23.298;2023-03-14T02:53:04;94784.44;;;9.66;37.81
35676;BME280;21790;42.668;23.298;2023-03-14T02:55:31;94783.16;;;9.80;37.16
35676;BME280;21790;42.668;23.298;2023-03-14T02:57:57;94782.34;;;9.70;37.42
35676;BME280;21790;42.668;23.298;2023-03-14T03:00:23;94786.53;;;9.84;36.96
35676;BME280;21790;42.668;23.298;2023-03-14T03:02:50;94790.97;;;9.81;37.22
35676;BME280;21790;42.668;23.298;2023-03-14T03:05:16;94792.19;;;9.49;37.78
35676;BME280;21790;42.668;23.298;2023-03-14T03:07:42;94794.56;;;9.38;38.03
35676;BME280;21790;42.668;23.298;2023-03-14T03:10:13;94793.16;;;9.55;37.95
35676;BME280;21790;42.668;23.298;2023-03-14T03:12:39;94788.75;;;9.36;38.26
35676;BME280;21790;42.668;23.298;2023-03-14T03:15:07;94783.97;;;9.58;37.58
35676;BME280;21790;42.668;23.298;2023-03-14T03:17:33;94785.47;;;9.50;38.18
35676;BME280;21790;42.668;23.298;2023-03-14T03:20:01;94789.75;;;9.51;38.04
35676;BME280;21790;42.668;23.298;2023-03-14T03:22:27;94778.31;;;9.62;37.62
35676;BME280;21790;42.668;23.298;2023-03-14T03:24:52;94783.44;;;9.42;38.20
35676;BME280;21790;42.668;23.298;2023-03-14T03:27:18;94778.94;;;9.35;38.26
35676;BME280;21790;42.668;23.298;2023-03-14T03:29:44;94779.03;;;9.22;38.87
35676;BME280;21790;42.668;23.298;2023-03-14T03:32:09;94780.56;;;9.23;38.66
35676;BME280;21790;42.668;23.298;2023-03-14T03:34:35;94781.72;;;9.13;38.92
35676;BME280;21790;42.668;23.298;2023-03-14T03:37:03;94776.16;;;9.26;38.50
35676;BME280;21790;42.668;23.298;2023-03-14T03:39:28;94778.34;;;9.40;37.96
35676;BME280;21790;42.668;23.298;2023-03-14T03:41:55;94778.94;;;9.35;38.41
35676;BME280;21790;42.668;23.298;2023-03-14T03:44:21;94778.31;;;9.31;38.33
35676;BME280;21790;42.668;23.298;2023-03-14T03:46:49;94787.81;;;9.30;37.99
35676;BME280;21790;42.668;23.298;2023-03-14T03:49:15;94788.66;;;9.18;37.71
35676;BME280;21790;42.668;23.298;2023-03-14T03:51:40;94791.97;;;9.13;37.78
35676;BME280;21790;42.668;23.298;2023-03-14T03:54:07;94801.75;;;9.05;38.20
35676;BME280;21790;42.668;23.298;2023-03-14T03:56:32;94801.41;;;9.03;38.19
35676;BME280;21790;42.668;23.298;2023-03-14T03:58:58;94790.38;;;9.03;38.61
35676;BME280;21790;42.668;23.298;2023-03-14T04:01:25;94797.25;;;9.20;38.44
35676;BME280;21790;42.668;23.298;2023-03-14T04:03:50;94794.44;;;9.11;38.76
35676;BME280;21790;42.668;23.298;2023-03-14T04:06:16;94794.59;;;9.16;38.25
35676;BME280;21790;42.668;23.298;2023-03-14T04:08:42;94797.34;;;9.16;37.85
35676;BME280;21790;42.668;23.298;2023-03-14T04:11:09;94795.97;;;9.12;37.91
35676;BME280;21790;42.668;23.298;2023-03-14T04:13:36;94784.53;;;9.22;37.90
35676;BME280;21790;42.668;23.298;2023-03-14T04:16:02;94781.66;;;9.26;37.50
35676;BME280;21790;42.668;23.298;2023-03-14T04:18:27;94791.09;;;9.16;37.96
35676;BME280;21790;42.668;23.298;2023-03-14T04:20:57;94776.53;;;9.15;38.30
35676;BME280;21790;42.668;23.298;2023-03-14T04:23:25;94777.44;;;8.91;38.68
35676;BME280;21790;42.668;23.298;2023-03-14T04:25:53;94779.69;;;9.05;38.29
35676;BME280;21790;42.668;23.298;2023-03-14T04:28:22;94777.25;;;9.07;38.21
35676;BME280;21790;42.668;23.298;2023-03-14T04:30:47;94769.09;;;9.25;53.81
35676;BME280;21790;42.668;23.298;2023-03-14T04:33:13;94760.00;;;11.08;47.80
35676;BME280;21790;42.668;23.298;2023-03-14T04:35:43;94755.88;;;11.64;36.92
35676;BME280;21790;42.668;23.298;2023-03-14T04:38:09;94748.34;;;11.04;34.78
35676;BME280;21790;42.668;23.298;2023-03-14T04:40:39;94747.88;;;10.42;35.90
35676;BME280;21790;42.668;23.298;2023-03-14T04:43:06;94753.59;;;9.89;36.96
35676;BME280;21790;42.668;23.298;2023-03-14T04:45:33;94747.28;;;9.89;36.69
35676;BME280;21790;42.668;23.298;2023-03-14T04:47:59;94742.09;;;10.00;36.60
35676;BME280;21790;42.668;23.298;2023-03-14T04:50:25;94739.78;;;9.49;37.67
35676;BME280;21790;42.668;23.298;2023-03-14T04:52:50;94737.97;;;9.55;37.40
35676;BME280;21790;42.668;23.298;2023-03-14T04:55:16;94730.25;;;9.41;37.45
35676;BME280;21790;42.668;23.298;2023-03-14T04:57:41;94747.25;;;9.09;37.99
35676;BME280;21790;42.668;23.298;2023-03-14T05:00:07;94744.88;;;9.20;38.28
35676;BME280;21790;42.668;23.298;2023-03-14T05:02:34;94739.94;;;9.15;38.37
35676;BME280;21790;42.668;23.298;2023-03-14T05:05:00;94734.81;;;9.35;37.83
35676;BME280;21790;42.668;23.298;2023-03-14T05:07:25;94738.66;;;9.07;37.72
35676;BME280;21790;42.668;23.298;2023-03-14T05:09:51;94738.22;;;9.08;38.08
35676;BME280;21790;42.668;23.298;2023-03-14T05:12:18;94730.75;;;9.18;37.90
35676;BME280;21790;42.668;23.298;2023-03-14T05:14:43;94734.78;;;9.26;37.93
35676;BME280;21790;42.668;23.298;2023-03-14T05:17:08;94745.81;;;9.26;37.98
35676;BME280;21790;42.668;23.298;2023-03-14T05:19:35;94742.19;;;9.38;38.64
35676;BME280;21790;42.668;23.298;2023-03-14T05:22:00;94737.59;;;9.35;38.32
35676;BME280;21790;42.668;23.298;2023-03-14T05:24:26;94727.16;;;9.39;38.04
35676;BME280;21790;42.668;23.298;2023-03-14T05:26:51;94738.97;;;9.71;37.32
35676;BME280;21790;42.668;23.298;2023-03-14T05:29:16;94729.16;;;9.70;37.09
35676;BME280;21790;42.668;23.298;2023-03-14T05:31:42;94730.94;;;9.54;37.85
35676;BME280;21790;42.668;23.298;2023-03-14T05:34:07;94729.16;;;9.70;37.68
35676;BME280;21790;42.668;23.298;2023-03-14T05:36:33;94732.03;;;9.66;37.59
35676;BME280;21790;42.668;23.298;2023-03-14T05:38:58;94723.31;;;9.77;37.10
35676;BME280;21790;42.668;23.298;2023-03-14T05:41:24;94723.38;;;9.86;36.94
35676;BME280;21790;42.668;23.298;2023-03-14T05:43:49;94728.59;;;9.93;37.08
35676;BME280;21790;42.668;23.298;2023-03-14T05:46:15;94735.09;;;10.08;37.54
35676;BME280;21790;42.668;23.298;2023-03-14T05:48:40;94728.53;;;10.24;36.58
35676;BME280;21790;42.668;23.298;2023-03-14T05:51:06;94730.84;;;10.34;36.47
35676;BME280;21790;42.668;23.298;2023-03-14T05:53:32;94729.31;;;10.42;35.85
35676;BME280;21790;42.668;23.298;2023-03-14T05:55:57;94729.63;;;10.54;35.81
35676;BME280;21790;42.668;23.298;2023-03-14T05:58:23;94727.31;;;10.61;35.54
35676;BME280;21790;42.668;23.298;2023-03-14T06:00:48;94735.16;;;10.72;35.31
35676;BME280;21790;42.668;23.298;2023-03-14T06:03:14;94732.03;;;10.97;34.58
35676;BME280;21790;42.668;23.298;2023-03-14T06:05:39;94735.13;;;10.81;34.87
35676;BME280;21790;42.668;23.298;2023-03-14T06:08:05;94726.84;;;10.99;34.54
35676;BME280;21790;42.668;23.298;2023-03-14T06:10:30;94730.19;;;11.03;34.26
35676;BME280;21790;42.668;23.298;2023-03-14T06:12:56;94725.75;;;11.06;34.33
35676;BME280;21790;42.668;23.298;2023-03-14T06:15:22;94717.91;;;11.04;34.33
35676;BME280;21790;42.668;23.298;2023-03-14T06:17:47;94716.53;;;11.00;34.28
35676;BME280;21790;42.668;23.298;2023-03-14T06:20:13;94720.50;;;11.17;33.98
35676;BME280;21790;42.668;23.298;2023-03-14T06:22:38;94726.19;;;11.22;34.20
35676;BME280;21790;42.668;23.298;2023-03-14T06:25:06;94715.94;;;11.56;33.71
35676;BME280;21790;42.668;23.298;2023-03-14T06:27:32;94735.59;;;12.00;32.83
35676;BME280;21790;42.668;23.298;2023-03-14T06:29:58;94734.53;;;11.97;33.04
35676;BME280;21790;42.668;23.298;2023-03-14T06:32:23;94735.19;;;12.40;32.17
35676;BME280;21790;42.668;23.298;2023-03-14T06:34:50;94736.38;;;12.48;31.82
35676;BME280;21790;42.668;23.298;2023-03-14T06:37:16;94739.84;;;12.57;31.30
35676;BME280;21790;42.668;23.298;2023-03-14T06:39:41;94712.19;;;12.87;31.11
35676;BME280;21790;42.668;23.298;2023-03-14T06:42:09;94723.91;;;13.20;30.74
35676;BME280;21790;42.668;23.298;2023-03-14T06:44:34;94722.78;;;13.42;30.79
35676;BME280;21790;42.668;23.298;2023-03-14T06:47:00;94709.81;;;13.09;30.38
35676;BME280;21790;42.668;23.298;2023-03-14T06:49:26;94718.00;;;12.89;30.72
35676;BME280;21790;42.668;23.298;2023-03-14T06:51:51;94706.09;;;12.97;30.30
35676;BME280;21790;42.668;23.298;2023-03-14T06:54:17;94706.03;;;13.36;30.75
35676;BME280;21790;42.668;23.298;2023-03-14T06:56:42;94700.91;;;13.64;30.02
35676;BME280;21790;42.668;23.298;2023-03-14T06:59:08;94693.81;;;13.77;29.85
35676;BME280;21790;42.668;23.298;2023-03-14T07:01:33;94691.75;;;13.93;29.53
35676;BME280;21790;42.668;23.298;2023-03-14T07:04:00;94691.09;;;14.18;29.22
35676;BME280;21790;42.668;23.298;2023-03-14T07:06:26;94691.31;;;14.35;28.90
35676;BME280;21790;42.668;23.298;2023-03-14T07:08:54;94688.22;;;14.47;28.92
35676;BME280;21790;42.668;23.298;2023-03-14T07:11:20;94677.75;;;14.62;28.59
35676;BME280;21790;42.668;23.298;2023-03-14T07:13:46;94678.72;;;14.80;28.34
35676;BME280;21790;42.668;23.298;2023-03-14T07:16:11;94672.78;;;14.67;27.92
35676;BME280;21790;42.668;23.298;2023-03-14T07:18:37;94685.59;;;14.84;28.26
35676;BME280;21790;42.668;23.298;2023-03-14T07:21:04;94684.28;;;15.00;27.67
35676;BME280;21790;42.668;23.298;2023-03-14T07:23:29;94685.41;;;15.14;27.29
35676;BME280;21790;42.668;23.298;2023-03-14T07:25:56;94683.81;;;15.07;27.11
35676;BME280;21790;42.668;23.298;2023-03-14T07:28:21;94682.66;;;15.19;27.34
35676;BME280;21790;42.668;23.298;2023-03-14T07:30:48;94675.72;;;15.35;27.47
35676;BME280;21790;42.668;23.298;2023-03-14T07:33:14;94671.00;;;15.46;27.29
35676;BME280;21790;42.668;23.298;2023-03-14T07:35:40;94670.91;;;15.61;27.16
35676;BME280;21790;42.668;23.298;2023-03-14T07:38:05;94664.44;;;15.75;26.77
35676;BME280;21790;42.668;23.298;2023-03-14T07:40:31;94663.91;;;15.77;26.76
35676;BME280;21790;42.668;23.298;2023-03-14T07:42:56;94654.66;;;15.91;27.33
35676;BME280;21790;42.668;23.298;2023-03-14T07:45:23;94654.25;;;16.09;27.04
35676;BME280;21790;42.668;23.298;2023-03-14T07:47:48;94658.16;;;16.28;27.08
35676;BME280;21790;42.668;23.298;2023-03-14T07:50:14;94650.13;;;16.42;26.00
35676;BME280;21790;42.668;23.298;2023-03-14T07:52:40;94652.69;;;16.51;25.84
35676;BME280;21790;42.668;23.298;2023-03-14T07:55:06;94651.16;;;16.50;25.90
35676;BME280;21790;42.668;23.298;2023-03-14T07:57:32;94648.94;;;16.65;27.04
35676;BME280;21790;42.668;23.298;2023-03-14T07:59:57;94651.03;;;16.87;26.92
35676;BME280;21790;42.668;23.298;2023-03-14T08:02:23;94653.63;;;16.42;26.99
35676;BME280;21790;42.668;23.298;2023-03-14T08:04:50;94651.38;;;16.41;27.32
35676;BME280;21790;42.668;23.298;2023-03-14T08:07:16;94646.66;;;16.15;26.88
35676;BME280;21790;42.668;23.298;2023-03-14T08:09:41;94643.66;;;16.19;26.97
35676;BME280;21790;42.668;23.298;2023-03-14T08:12:07;94645.84;;;16.52;26.95
35676;BME280;21790;42.668;23.298;2023-03-14T08:14:33;94646.47;;;16.78;26.65
35676;BME280;21790;42.668;23.298;2023-03-14T08:16:59;94646.00;;;16.96;25.94
35676;BME280;21790;42.668;23.298;2023-03-14T08:19:24;94638.38;;;17.13;25.35
35676;BME280;21790;42.668;23.298;2023-03-14T08:21:51;94642.47;;;17.35;25.28
35676;BME280;21790;42.668;23.298;2023-03-14T08:24:17;94641.47;;;17.38;24.96
35676;BME280;21790;42.668;23.298;2023-03-14T08:26:42;94637.91;;;17.48;25.41
35676;BME280;21790;42.668;23.298;2023-03-14T08:29:08;94644.28;;;17.60;24.85
35676;BME280;21790;42.668;23.298;2023-03-14T08:31:35;94628.78;;;17.70;25.12
35676;BME280;21790;42.668;23.298;2023-03-14T08:34:02;94628.00;;;17.81;24.61
35676;BME280;21790;42.668;23.298;2023-03-14T08:36:28;94622.41;;;17.92;24.26
35676;BME280;21790;42.668;23.298;2023-03-14T08:38:54;94614.75;;;18.04;24.52
35676;BME280;21790;42.668;23.298;2023-03-14T08:41:21;94624.63;;;18.16;23.93
35676;BME280;21790;42.668;23.298;2023-03-14T08:43:47;94616.44;;;18.29;23.76
35676;BME280;21790;42.668;23.298;2023-03-14T08:46:14;94604.69;;;18.47;24.01
35676;BME280;21790;42.668;23.298;2023-03-14T08:48:42;94611.53;;;18.52;23.44
35676;BME280;21790;42.668;23.298;2023-03-14T08:51:10;94603.16;;;18.46;23.15
35676;BME280;21790;42.668;23.298;2023-03-14T08:53:36;94598.16;;;18.17;23.50
35676;BME280;21790;42.668;23.298;2023-03-14T08:56:03;94586.19;;;18.27;23.75
35676;BME280;21790;42.668;23.298;2023-03-14T08:58:31;94587.97;;;18.30;23.37
35676;BME280;21790;42.668;23.298;2023-03-14T09:00:57;94593.72;;;18.55;23.28
35676;BME280;21790;42.668;23.298;2023-03-14T09:03:23;94583.16;;;18.77;22.95
35676;BME280;21790;42.668;23.298;2023-03-14T09:05:53;94572.72;;;19.19;22.61
35676;BME280;21790;42.668;23.298;2023-03-14T09:08:21;94562.50;;;18.86;23.40
35676;BME280;21790;42.668;23.298;2023-03-14T09:10:48;94559.03;;;19.10;24.03
35676;BME280;21790;42.668;23.298;2023-03-14T09:13:19;94561.19;;;19.28;22.30
35676;BME280;21790;42.668;23.298;2023-03-14T09:15:51;94550.41;;;19.38;22.31
35676;BME280;21790;42.668;23.298;2023-03-14T09:18:20;94552.50;;;19.61;22.33
35676;BME280;21790;42.668;23.298;2023-03-14T09:20:46;94542.91;;;19.76;21.88
35676;BME280;21790;42.668;23.298;2023-03-14T09:23:11;94537.97;;;19.33;22.06
35676;BME280;21790;42.668;23.298;2023-03-14T09:25:37;94529.97;;;19.43;22.53
35676;BME280;21790;42.668;23.298;2023-03-14T09:28:03;94524.13;;;19.71;22.71
35676;BME280;21790;42.668;23.298;2023-03-14T09:30:29;94523.53;;;19.53;22.23
35676;BME280;21790;42.668;23.298;2023-03-14T09:32:55;94527.63;;;19.52;21.78
35676;BME280;21790;42.668;23.298;2023-03-14T09:35:20;94530.72;;;19.43;22.34
35676;BME280;21790;42.668;23.298;2023-03-14T09:37:46;94507.19;;;19.57;21.91
35676;BME280;21790;42.668;23.298;2023-03-14T09:40:18;94514.31;;;19.83;21.92
35676;BME280;21790;42.668;23.298;2023-03-14T09:42:52;94504.56;;;20.08;22.16
35676;BME280;21790;42.668;23.298;2023-03-14T09:45:32;94483.63;;;19.90;20.47
35676;BME280;21790;42.668;23.298;2023-03-14T09:47:59;94498.94;;;19.89;20.85
35676;BME280;21790;42.668;23.298;2023-03-14T09:50:33;94492.53;;;19.46;21.40
35676;BME280;21790;42.668;23.298;2023-03-14T09:53:05;94486.63;;;19.49;21.67
35676;BME280;21790;42.668;23.298;2023-03-14T09:55:33;94479.66;;;19.02;22.31
35676;BME280;21790;42.668;23.298;2023-03-14T09:58:04;94485.19;;;19.37;22.16
35676;BME280;21790;42.668;23.298;2023-03-14T10:00:35;94472.69;;;18.84;22.16
35676;BME280;21790;42.668;23.298;2023-03-14T10:05:52;94456.34;;;19.18;21.54
35676;BME280;21790;42.668;23.298;2023-03-14T10:08:20;94463.75;;;19.45;21.49
35676;BME280;21790;42.668;23.298;2023-03-14T10:10:46;94467.19;;;19.57;21.13
35676;BME280;21790;42.668;23.298;2023-03-14T10:15:40;94443.47;;;20.01;21.05
35676;BME280;21790;42.668;23.298;2023-03-14T10:18:11;94442.06;;;20.32;20.90
35676;BME280;21790;42.668;23.298;2023-03-14T10:20:45;94437.28;;;20.45;20.35
35676;BME280;21790;42.668;23.298;2023-03-14T10:25:41;94414.81;;;20.45;20.46
35676;BME280;21790;42.668;23.298;2023-03-14T10:28:28;94414.94;;;20.72;20.46
35676;BME280;21790;42.668;23.298;2023-03-14T10:30:55;94409.78;;;20.57;20.65
35676;BME280;21790;42.668;23.298;2023-03-14T10:33:27;94412.88;;;20.72;21.22
35676;BME280;21790;42.668;23.298;2023-03-14T10:36:02;94395.09;;;20.83;20.69
35676;BME280;21790;42.668;23.298;2023-03-14T10:38:33;94384.78;;;20.40;20.89
35676;BME280;21790;42.668;23.298;2023-03-14T10:41:01;94384.47;;;20.25;21.28
35676;BME280;21790;42.668;23.298;2023-03-14T10:43:34;94376.16;;;20.01;21.67
35676;BME280;21790;42.668;23.298;2023-03-14T10:46:09;94368.88;;;20.11;21.48
35676;BME280;21790;42.668;23.298;2023-03-14T10:48:37;94362.25;;;20.09;21.68
35676;BME280;21790;42.668;23.298;2023-03-14T10:56:14;94342.19;;;20.23;21.73
35676;BME280;21790;42.668;23.298;2023-03-14T10:58:48;94334.41;;;20.48;22.24
35676;BME280;21790;42.668;23.298;2023-03-14T11:07:09;94327.41;;;20.04;21.85
35676;BME280;21790;42.668;23.298;2023-03-14T11:15:02;94306.13;;;19.77;23.25
35676;BME280;21790;42.668;23.298;2023-03-14T11:17:44;94299.41;;;19.67;22.74
35676;BME280;21790;42.668;23.298;2023-03-14T11:23:12;94273.16;;;19.83;23.32
35676;BME280;21790;42.668;23.298;2023-03-14T11:28:29;94254.47;;;20.36;23.27
35676;BME280;21790;42.668;23.298;2023-03-14T11:34:10;94246.53;;;20.79;22.04
35676;BME280;21790;42.668;23.298;2023-03-14T11:36:48;94235.41;;;21.00;22.22
35676;BME280;21790;42.668;23.298;2023-03-14T11:39:19;94248.41;;;20.77;22.42
35676;BME280;21790;42.668;23.298;2023-03-14T11:41:58;94239.84;;;20.24;22.72
35676;BME280;21790;42.668;23.298;2023-03-14T11:44:48;94227.03;;;19.84;23.28
35676;BME280;21790;42.668;23.298;2023-03-14T11:50:16;94209.50;;;19.96;23.13
35676;BME280;21790;42.668;23.298;2023-03-14T11:52:52;94227.88;;;19.41;23.47
35676;BME280;21790;42.668;23.298;2023-03-14T11:55:35;94209.75;;;19.80;22.75
35676;BME280;21790;42.668;23.298;2023-03-14T11:58:27;94220.91;;;19.67;23.36
35676;BME280;21790;42.668;23.298;2023-03-14T12:00:57;94201.81;;;19.97;22.79
35676;BME280;21790;42.668;23.298;2023-03-14T12:03:58;94193.72;;;20.38;22.65
35676;BME280;21790;42.668;23.298;2023-03-14T12:06:33;94187.69;;;20.48;22.73
35676;BME280;21790;42.668;23.298;2023-03-14T12:09:04;94178.09;;;20.43;22.09
35676;BME280;21790;42.668;23.298;2023-03-14T12:11:56;94172.94;;;20.15;22.40
35676;BME280;21790;42.668;23.298;2023-03-14T12:14:30;94171.13;;;20.18;22.41
35676;BME280;21790;42.668;23.298;2023-03-14T12:17:05;94163.94;;;19.58;22.73
35676;BME280;21790;42.668;23.298;2023-03-14T12:19:41;94155.47;;;20.22;22.72
35676;BME280;21790;42.668;23.298;2023-03-14T12:22:21;94151.94;;;20.35;22.02
35676;BME280;21790;42.668;23.298;2023-03-14T12:24:53;94143.69;;;20.24;22.40
35676;BME280;21790;42.668;23.298;2023-03-14T12:41:06;94123.69;;;21.53;22.12
35676;BME280;21790;42.668;23.298;2023-03-14T12:43:37;94112.72;;;21.29;21.44
35676;BME280;21790;42.668;23.298;2023-03-14T12:46:08;94108.00;;;21.24;20.94
35676;BME280;21790;42.668;23.298;2023-03-14T12:48:34;94107.44;;;20.78;21.75
35676;BME280;21790;42.668;23.298;2023-03-14T13:02:22;94074.72;;;20.81;21.12
35676;BME280;21790;42.668;23.298;2023-03-14T13:05:13;94077.69;;;20.36;22.01
35676;BME280;21790;42.668;23.298;2023-03-14T13:10:25;94074.75;;;21.02;21.58
35676;BME280;21790;42.668;23.298;2023-03-14T13:13:07;94065.59;;;21.35;21.42
35676;BME280;21790;42.668;23.298;2023-03-14T13:15:46;94051.78;;;21.45;20.87
35676;BME280;21790;42.668;23.298;2023-03-14T13:23:40;94042.47;;;21.50;21.07
35676;BME280;21790;42.668;23.298;2023-03-14T13:26:13;94039.19;;;21.59;21.03
35676;BME280;21790;42.668;23.298;2023-03-14T13:28:41;94027.00;;;21.36;20.81
35676;BME280;21790;42.668;23.298;2023-03-14T13:31:21;94021.97;;;21.62;20.79
35676;BME280;21790;42.668;23.298;2023-03-14T13:34:05;94018.06;;;21.65;20.16
35676;BME280;21790;42.668;23.298;2023-03-14T13:36:39;94006.78;;;21.37;20.31
35676;BME280;21790;42.668;23.298;2023-03-14T13:39:19;94011.16;;;21.46;20.69
35676;BME280;21790;42.668;23.298;2023-03-14T13:41:47;94002.59;;;21.31;20.47
35676;BME280;21790;42.668;23.298;2023-03-14T13:44:17;93991.19;;;21.57;20.28
35676;BME280;21790;42.668;23.298;2023-03-14T13:46:45;93991.19;;;21.57;20.29
35676;BME280;21790;42.668;23.298;2023-03-14T13:49:23;93981.91;;;21.69;20.70
35676;BME280;21790;42.668;23.298;2023-03-14T13:51:55;93974.97;;;21.21;20.50
35676;BME280;21790;42.668;23.298;2023-03-14T13:54:22;93977.91;;;21.37;20.37
35676;BME280;21790;42.668;23.298;2023-03-14T13:57:00;93973.38;;;21.34;20.06
35676;BME280;21790;42.668;23.298;2023-03-14T13:59:29;93959.78;;;21.45;20.27
35676;BME280;21790;42.668;23.298;2023-03-14T14:02:12;93953.53;;;21.32;20.13
35676;BME280;21790;42.668;23.298;2023-03-14T14:04:40;93954.06;;;21.09;20.35
35676;BME280;21790;42.668;23.298;2023-03-14T14:07:13;93944.53;;;21.33;20.45
35676;BME280;21790;42.668;23.298;2023-03-14T14:09:50;93947.09;;;21.52;19.82
35676;BME280;21790;42.668;23.298;2023-03-14T14:12:26;93949.84;;;21.44;20.02
35676;BME280;21790;42.668;23.298;2023-03-14T14:17:41;93930.84;;;21.58;20.35
35676;BME280;21790;42.668;23.298;2023-03-14T14:20:32;93927.28;;;21.57;19.70